sensor_id;sensor_type;location;lat;lon;timestamp;P1;durP1;ratioP1;P2;durP2;ratioP2
15254;SDS011;7730;49.610;11.136;2022-12-20T00:01:24;21.60;;;13.83;;
15254;SDS011;7730;49.610;11.136;2022-12-20T00:03:52;21.87;;;14.27;;
15254;SDS011;7730;49.610;11.136;2022-12-20T00:06:19;20.40;;;13.33;;
15254;SDS011;7730;49.610;11.136;2022-12-20T00:08:46;20.13;;;12.97;;
15254;SDS011;7730;49.610;11.136;2022-12-20T00:11:18;21.83;;;14.30;;
15254;SDS011;7730;49.610;11.136;2022-12-20T00:13:46;21.13;;;13.53;;
15254;SDS011;7730;49.610;11.136;2022-12-20T00:16:14;20.80;;;13.60;;
15254;SDS011;7730;49.610;11.136;2022-12-20T00:18:42;21.10;;;13.70;;
15254;SDS011;7730;49.610;11.136;2022-12-20T00:21:10;21.20;;;13.87;;
15254;SDS011;7730;49.610;11.136;2022-12-20T00:23:37;22.10;;;13.20;;
15254;SDS011;7730;49.610;11.136;2022-12-20T00:26:05;21.27;;;13.77;;
15254;SDS011;7730;49.610;11.136;2022-12-20T00:28:33;20.00;;;12.87;;
15254;SDS011;7730;49.610;11.136;2022-12-20T00:31:02;22.37;;;13.87;;
15254;SDS011;7730;49.610;11.136;2022-12-20T00:33:29;21.50;;;13.87;;
15254;SDS011;7730;49.610;11.136;2022-12-20T00:35:56;20.83;;;13.47;;
15254;SDS011;7730;49.610;11.136;2022-12-20T00:38:23;21.47;;;14.00;;
15254;SDS011;7730;49.610;11.136;2022-12-20T00:40:57;22.30;;;13.73;;
15254;SDS011;7730;49.610;11.136;2022-12-20T00:43:25;25.13;;;17.37;;
15254;SDS011;7730;49.610;11.136;2022-12-20T00:45:52;23.20;;;14.70;;
15254;SDS011;7730;49.610;11.136;2022-12-20T00:48:20;21.37;;;13.70;;
15254;SDS011;7730;49.610;11.136;2022-12-20T00:50:47;21.43;;;13.70;;
15254;SDS011;7730;49.610;11.136;2022-12-20T00:53:14;21.37;;;13.97;;
15254;SDS011;7730;49.610;11.136;2022-12-20T00:55:42;21.73;;;13.50;;
15254;SDS011;7730;49.610;11.136;2022-12-20T00:58:09;21.67;;;13.40;;
15254;SDS011;7730;49.610;11.136;2022-12-20T01:00:36;20.20;;;12.53;;
15254;SDS011;7730;49.610;11.136;2022-12-20T01:03:03;22.27;;;13.70;;
15254;SDS011;7730;49.610;11.136;2022-12-20T01:05:32;21.17;;;12.50;;
15254;SDS011;7730;49.610;11.136;2022-12-20T01:07:59;21.20;;;13.43;;
15254;SDS011;7730;49.610;11.136;2022-12-20T01:10:26;21.30;;;14.03;;
15254;SDS011;7730;49.610;11.136;2022-12-20T01:12:53;21.33;;;13.80;;
15254;SDS011;7730;49.610;11.136;2022-12-20T01:15:20;21.17;;;13.50;;
15254;SDS011;7730;49.610;11.136;2022-12-20T01:17:47;21.43;;;13.13;;
15254;SDS011;7730;49.610;11.136;2022-12-20T01:20:15;21.07;;;13.23;;
15254;SDS011;7730;49.610;11.136;2022-12-20T01:22:44;20.83;;;12.83;;
15254;SDS011;7730;49.610;11.136;2022-12-20T01:25:11;21.93;;;13.43;;
15254;SDS011;7730;49.610;11.136;2022-12-20T01:27:38;21.10;;;12.80;;
15254;SDS011;7730;49.610;11.136;2022-12-20T01:30:06;21.00;;;13.43;;
15254;SDS011;7730;49.610;11.136;2022-12-20T01:32:33;20.97;;;13.20;;
15254;SDS011;7730;49.610;11.136;2022-12-20T01:35:00;20.80;;;13.17;;
15254;SDS011;7730;49.610;11.136;2022-12-20T01:37:27;21.00;;;13.40;;
15254;SDS011;7730;49.610;11.136;2022-12-20T01:39:55;21.40;;;12.83;;
15254;SDS011;7730;49.610;11.136;2022-12-20T01:42:22;22.23;;;13.97;;
15254;SDS011;7730;49.610;11.136;2022-12-20T01:44:51;20.33;;;12.77;;
15254;SDS011;7730;49.610;11.136;2022-12-20T01:47:19;22.33;;;14.23;;
15254;SDS011;7730;49.610;11.136;2022-12-20T01:49:47;21.93;;;14.40;;
15254;SDS011;7730;49.610;11.136;2022-12-20T01:52:16;22.00;;;14.13;;
15254;SDS011;7730;49.610;11.136;2022-12-20T01:54:45;21.97;;;13.87;;
15254;SDS011;7730;49.610;11.136;2022-12-20T01:57:16;21.97;;;14.10;;
15254;SDS011;7730;49.610;11.136;2022-12-20T01:59:44;22.27;;;13.60;;
15254;SDS011;7730;49.610;11.136;2022-12-20T02:02:12;21.23;;;13.90;;
15254;SDS011;7730;49.610;11.136;2022-12-20T02:04:39;20.97;;;13.53;;
15254;SDS011;7730;49.610;11.136;2022-12-20T02:07:06;21.00;;;13.90;;
15254;SDS011;7730;49.610;11.136;2022-12-20T02:09:34;21.73;;;14.23;;
15254;SDS011;7730;49.610;11.136;2022-12-20T02:12:05;21.70;;;13.60;;
15254;SDS011;7730;49.610;11.136;2022-12-20T02:14:43;21.60;;;14.23;;
15254;SDS011;7730;49.610;11.136;2022-12-20T02:17:16;21.30;;;13.43;;
15254;SDS011;7730;49.610;11.136;2022-12-20T02:19:51;21.30;;;13.53;;
15254;SDS011;7730;49.610;11.136;2022-12-20T02:22:22;20.77;;;13.10;;
15254;SDS011;7730;49.610;11.136;2022-12-20T02:24:59;21.57;;;14.37;;
15254;SDS011;7730;49.610;11.136;2022-12-20T02:27:43;20.27;;;13.13;;
15254;SDS011;7730;49.610;11.136;2022-12-20T02:30:14;21.90;;;13.50;;
15254;SDS011;7730;49.610;11.136;2022-12-20T02:32:44;19.77;;;12.07;;
15254;SDS011;7730;49.610;11.136;2022-12-20T02:35:18;19.00;;;11.33;;
15254;SDS011;7730;49.610;11.136;2022-12-20T02:37:49;22.13;;;14.33;;
15254;SDS011;7730;49.610;11.136;2022-12-20T02:40:18;21.63;;;13.40;;
15254;SDS011;7730;49.610;11.136;2022-12-20T02:42:47;20.90;;;13.60;;
15254;SDS011;7730;49.610;11.136;2022-12-20T02:45:17;20.30;;;12.57;;
15254;SDS011;7730;49.610;11.136;2022-12-20T02:47:47;19.70;;;11.57;;
15254;SDS011;7730;49.610;11.136;2022-12-20T02:50:16;22.67;;;14.40;;
15254;SDS011;7730;49.610;11.136;2022-12-20T02:52:44;20.83;;;13.47;;
15254;SDS011;7730;49.610;11.136;2022-12-20T02:55:11;23.47;;;14.77;;
15254;SDS011;7730;49.610;11.136;2022-12-20T02:57:41;20.77;;;13.57;;
15254;SDS011;7730;49.610;11.136;2022-12-20T03:00:10;22.17;;;13.53;;
15254;SDS011;7730;49.610;11.136;2022-12-20T03:02:40;21.63;;;14.50;;
15254;SDS011;7730;49.610;11.136;2022-12-20T03:05:22;21.67;;;13.40;;
15254;SDS011;7730;49.610;11.136;2022-12-20T03:07:50;22.37;;;14.43;;
15254;SDS011;7730;49.610;11.136;2022-12-20T03:10:17;22.00;;;14.20;;
15254;SDS011;7730;49.610;11.136;2022-12-20T03:12:44;20.20;;;12.20;;
15254;SDS011;7730;49.610;11.136;2022-12-20T03:15:11;22.23;;;14.33;;
15254;SDS011;7730;49.610;11.136;2022-12-20T03:17:40;21.17;;;13.37;;
15254;SDS011;7730;49.610;11.136;2022-12-20T03:20:07;22.43;;;14.20;;
15254;SDS011;7730;49.610;11.136;2022-12-20T03:22:35;21.40;;;13.60;;
15254;SDS011;7730;49.610;11.136;2022-12-20T03:25:03;21.80;;;14.10;;
15254;SDS011;7730;49.610;11.136;2022-12-20T03:27:30;20.97;;;12.87;;
15254;SDS011;7730;49.610;11.136;2022-12-20T03:29:57;21.23;;;13.77;;
15254;SDS011;7730;49.610;11.136;2022-12-20T03:32:24;22.90;;;15.20;;
15254;SDS011;7730;49.610;11.136;2022-12-20T03:34:52;21.53;;;14.17;;
15254;SDS011;7730;49.610;11.136;2022-12-20T03:37:19;21.10;;;13.97;;
15254;SDS011;7730;49.610;11.136;2022-12-20T03:39:46;21.63;;;13.83;;
15254;SDS011;7730;49.610;11.136;2022-12-20T03:42:13;21.70;;;13.93;;
15254;SDS011;7730;49.610;11.136;2022-12-20T03:44:41;22.77;;;14.33;;
15254;SDS011;7730;49.610;11.136;2022-12-20T03:47:08;21.17;;;13.60;;
15254;SDS011;7730;49.610;11.136;2022-12-20T03:49:35;22.77;;;14.60;;
15254;SDS011;7730;49.610;11.136;2022-12-20T03:52:03;22.63;;;14.50;;
15254;SDS011;7730;49.610;11.136;2022-12-20T03:54:30;21.87;;;14.40;;
15254;SDS011;7730;49.610;11.136;2022-12-20T03:56:57;22.20;;;14.60;;
15254;SDS011;7730;49.610;11.136;2022-12-20T03:59:24;21.97;;;13.97;;
15254;SDS011;7730;49.610;11.136;2022-12-20T04:01:51;22.23;;;14.50;;
15254;SDS011;7730;49.610;11.136;2022-12-20T04:04:18;22.43;;;14.00;;
15254;SDS011;7730;49.610;11.136;2022-12-20T04:06:46;21.03;;;13.87;;
15254;SDS011;7730;49.610;11.136;2022-12-20T04:09:14;20.53;;;13.33;;
15254;SDS011;7730;49.610;11.136;2022-12-20T04:11:41;23.20;;;14.33;;
15254;SDS011;7730;49.610;11.136;2022-12-20T04:14:08;21.77;;;14.90;;
15254;SDS011;7730;49.610;11.136;2022-12-20T04:16:35;21.37;;;13.67;;
15254;SDS011;7730;49.610;11.136;2022-12-20T04:19:02;21.33;;;14.43;;
15254;SDS011;7730;49.610;11.136;2022-12-20T04:21:30;21.90;;;14.93;;
15254;SDS011;7730;49.610;11.136;2022-12-20T04:23:58;22.33;;;14.47;;
15254;SDS011;7730;49.610;11.136;2022-12-20T04:26:27;21.80;;;13.67;;
15254;SDS011;7730;49.610;11.136;2022-12-20T04:28:54;19.37;;;11.80;;
15254;SDS011;7730;49.610;11.136;2022-12-20T04:31:21;20.10;;;12.50;;
15254;SDS011;7730;49.610;11.136;2022-12-20T04:33:49;21.23;;;13.53;;
15254;SDS011;7730;49.610;11.136;2022-12-20T04:36:16;20.33;;;12.67;;
15254;SDS011;7730;49.610;11.136;2022-12-20T04:38:43;23.03;;;15.07;;
15254;SDS011;7730;49.610;11.136;2022-12-20T04:41:10;22.00;;;14.27;;
15254;SDS011;7730;49.610;11.136;2022-12-20T04:43:47;22.17;;;13.90;;
15254;SDS011;7730;49.610;11.136;2022-12-20T04:46:14;20.53;;;13.03;;
15254;SDS011;7730;49.610;11.136;2022-12-20T04:48:41;22.60;;;14.30;;
15254;SDS011;7730;49.610;11.136;2022-12-20T04:51:08;21.20;;;14.07;;
15254;SDS011;7730;49.610;11.136;2022-12-20T04:53:35;21.80;;;14.80;;
15254;SDS011;7730;49.610;11.136;2022-12-20T04:56:18;21.43;;;13.63;;
15254;SDS011;7730;49.610;11.136;2022-12-20T04:58:45;21.00;;;14.50;;
15254;SDS011;7730;49.610;11.136;2022-12-20T05:01:14;21.73;;;14.13;;
15254;SDS011;7730;49.610;11.136;2022-12-20T05:03:42;21.93;;;13.20;;
15254;SDS011;7730;49.610;11.136;2022-12-20T05:06:10;20.13;;;13.30;;
15254;SDS011;7730;49.610;11.136;2022-12-20T05:08:37;21.53;;;13.70;;
15254;SDS011;7730;49.610;11.136;2022-12-20T05:11:04;20.70;;;13.70;;
15254;SDS011;7730;49.610;11.136;2022-12-20T05:13:31;21.37;;;14.23;;
15254;SDS011;7730;49.610;11.136;2022-12-20T05:15:59;22.40;;;14.87;;
15254;SDS011;7730;49.610;11.136;2022-12-20T05:18:27;20.97;;;14.17;;
15254;SDS011;7730;49.610;11.136;2022-12-20T05:20:54;21.90;;;13.73;;
15254;SDS011;7730;49.610;11.136;2022-12-20T05:23:39;20.10;;;13.10;;
15254;SDS011;7730;49.610;11.136;2022-12-20T05:26:25;21.63;;;13.87;;
15254;SDS011;7730;49.610;11.136;2022-12-20T05:28:52;21.93;;;14.20;;
15254;SDS011;7730;49.610;11.136;2022-12-20T05:31:19;21.77;;;14.07;;
15254;SDS011;7730;49.610;11.136;2022-12-20T05:33:48;22.03;;;14.67;;
15254;SDS011;7730;49.610;11.136;2022-12-20T05:36:15;21.73;;;14.07;;
15254;SDS011;7730;49.610;11.136;2022-12-20T05:38:42;19.73;;;12.33;;
15254;SDS011;7730;49.610;11.136;2022-12-20T05:41:09;22.47;;;14.57;;
15254;SDS011;7730;49.610;11.136;2022-12-20T05:43:36;21.90;;;13.97;;
15254;SDS011;7730;49.610;11.136;2022-12-20T05:46:04;22.10;;;14.27;;
15254;SDS011;7730;49.610;11.136;2022-12-20T05:48:31;21.03;;;13.93;;
15254;SDS011;7730;49.610;11.136;2022-12-20T05:51:00;22.47;;;14.60;;
15254;SDS011;7730;49.610;11.136;2022-12-20T05:53:27;22.87;;;14.40;;
15254;SDS011;7730;49.610;11.136;2022-12-20T05:55:54;22.70;;;14.70;;
15254;SDS011;7730;49.610;11.136;2022-12-20T05:58:21;21.10;;;13.20;;
15254;SDS011;7730;49.610;11.136;2022-12-20T06:00:48;21.97;;;14.40;;
15254;SDS011;7730;49.610;11.136;2022-12-20T06:03:15;21.53;;;14.80;;
15254;SDS011;7730;49.610;11.136;2022-12-20T06:05:43;22.80;;;14.63;;
15254;SDS011;7730;49.610;11.136;2022-12-20T06:08:11;22.63;;;14.70;;
15254;SDS011;7730;49.610;11.136;2022-12-20T06:10:39;22.63;;;15.00;;
15254;SDS011;7730;49.610;11.136;2022-12-20T06:13:06;21.70;;;14.67;;
15254;SDS011;7730;49.610;11.136;2022-12-20T06:15:33;22.30;;;14.90;;
15254;SDS011;7730;49.610;11.136;2022-12-20T06:18:00;22.47;;;14.57;;
15254;SDS011;7730;49.610;11.136;2022-12-20T06:20:28;21.37;;;13.90;;
15254;SDS011;7730;49.610;11.136;2022-12-20T06:22:55;22.80;;;15.10;;
15254;SDS011;7730;49.610;11.136;2022-12-20T06:25:23;21.40;;;14.00;;
15254;SDS011;7730;49.610;11.136;2022-12-20T06:27:51;22.07;;;15.03;;
15254;SDS011;7730;49.610;11.136;2022-12-20T06:30:18;22.57;;;14.57;;
15254;SDS011;7730;49.610;11.136;2022-12-20T06:32:45;22.43;;;15.07;;
15254;SDS011;7730;49.610;11.136;2022-12-20T06:35:12;20.00;;;12.20;;
15254;SDS011;7730;49.610;11.136;2022-12-20T06:37:39;21.90;;;15.10;;
15254;SDS011;7730;49.610;11.136;2022-12-20T06:40:07;22.33;;;14.87;;
15254;SDS011;7730;49.610;11.136;2022-12-20T06:42:35;21.93;;;13.73;;
15254;SDS011;7730;49.610;11.136;2022-12-20T06:45:03;21.37;;;14.33;;
15254;SDS011;7730;49.610;11.136;2022-12-20T06:47:30;21.70;;;14.23;;
15254;SDS011;7730;49.610;11.136;2022-12-20T06:49:57;22.97;;;14.53;;
15254;SDS011;7730;49.610;11.136;2022-12-20T06:52:24;23.63;;;15.17;;
15254;SDS011;7730;49.610;11.136;2022-12-20T06:54:51;22.60;;;15.23;;
15254;SDS011;7730;49.610;11.136;2022-12-20T06:57:18;20.90;;;13.70;;
15254;SDS011;7730;49.610;11.136;2022-12-20T06:59:47;21.60;;;13.80;;
15254;SDS011;7730;49.610;11.136;2022-12-20T07:02:14;21.53;;;14.07;;
15254;SDS011;7730;49.610;11.136;2022-12-20T07:04:41;21.17;;;14.33;;
15254;SDS011;7730;49.610;11.136;2022-12-20T07:07:08;20.77;;;13.30;;
15254;SDS011;7730;49.610;11.136;2022-12-20T07:09:37;20.97;;;13.53;;
15254;SDS011;7730;49.610;11.136;2022-12-20T07:12:05;22.43;;;14.93;;
15254;SDS011;7730;49.610;11.136;2022-12-20T07:14:32;21.77;;;14.67;;
15254;SDS011;7730;49.610;11.136;2022-12-20T07:17:01;21.40;;;13.77;;
15254;SDS011;7730;49.610;11.136;2022-12-20T07:19:28;23.87;;;14.60;;
15254;SDS011;7730;49.610;11.136;2022-12-20T07:21:55;21.77;;;13.63;;
15254;SDS011;7730;49.610;11.136;2022-12-20T07:24:22;21.33;;;13.83;;
15254;SDS011;7730;49.610;11.136;2022-12-20T07:26:49;21.47;;;13.53;;
15254;SDS011;7730;49.610;11.136;2022-12-20T07:29:16;18.43;;;11.10;;
15254;SDS011;7730;49.610;11.136;2022-12-20T07:31:43;18.07;;;11.00;;
15254;SDS011;7730;49.610;11.136;2022-12-20T07:34:11;18.03;;;10.53;;
15254;SDS011;7730;49.610;11.136;2022-12-20T07:36:39;22.40;;;13.97;;
15254;SDS011;7730;49.610;11.136;2022-12-20T07:39:06;22.83;;;14.70;;
15254;SDS011;7730;49.610;11.136;2022-12-20T07:41:33;20.83;;;12.80;;
15254;SDS011;7730;49.610;11.136;2022-12-20T07:44:00;21.37;;;13.37;;
15254;SDS011;7730;49.610;11.136;2022-12-20T07:46:27;21.57;;;12.87;;
15254;SDS011;7730;49.610;11.136;2022-12-20T07:48:54;20.97;;;13.43;;
15254;SDS011;7730;49.610;11.136;2022-12-20T07:51:24;22.30;;;14.93;;
15254;SDS011;7730;49.610;11.136;2022-12-20T07:53:52;22.20;;;14.63;;
15254;SDS011;7730;49.610;11.136;2022-12-20T07:56:20;22.10;;;15.07;;
15254;SDS011;7730;49.610;11.136;2022-12-20T07:58:48;22.80;;;15.10;;
15254;SDS011;7730;49.610;11.136;2022-12-20T08:01:16;21.10;;;14.47;;
15254;SDS011;7730;49.610;11.136;2022-12-20T08:03:46;23.80;;;15.50;;
15254;SDS011;7730;49.610;11.136;2022-12-20T08:06:14;22.13;;;14.77;;
15254;SDS011;7730;49.610;11.136;2022-12-20T08:08:45;22.03;;;14.60;;
15254;SDS011;7730;49.610;11.136;2022-12-20T08:11:13;22.33;;;14.77;;
15254;SDS011;7730;49.610;11.136;2022-12-20T08:13:40;21.17;;;14.23;;
15254;SDS011;7730;49.610;11.136;2022-12-20T08:16:07;21.93;;;14.63;;
15254;SDS011;7730;49.610;11.136;2022-12-20T08:18:34;20.93;;;13.53;;
15254;SDS011;7730;49.610;11.136;2022-12-20T08:21:02;21.40;;;14.33;;
15254;SDS011;7730;49.610;11.136;2022-12-20T08:23:29;21.63;;;13.77;;
15254;SDS011;7730;49.610;11.136;2022-12-20T08:26:00;21.07;;;13.63;;
15254;SDS011;7730;49.610;11.136;2022-12-20T08:28:27;21.47;;;13.63;;
15254;SDS011;7730;49.610;11.136;2022-12-20T08:30:58;21.17;;;13.10;;
15254;SDS011;7730;49.610;11.136;2022-12-20T08:33:25;21.57;;;13.00;;
15254;SDS011;7730;49.610;11.136;2022-12-20T08:35:55;21.97;;;13.87;;
15254;SDS011;7730;49.610;11.136;2022-12-20T08:38:24;19.93;;;12.93;;
15254;SDS011;7730;49.610;11.136;2022-12-20T08:40:51;22.70;;;14.50;;
15254;SDS011;7730;49.610;11.136;2022-12-20T08:43:19;20.03;;;12.03;;
15254;SDS011;7730;49.610;11.136;2022-12-20T08:45:50;19.70;;;12.17;;
15254;SDS011;7730;49.610;11.136;2022-12-20T08:48:17;19.73;;;12.60;;
15254;SDS011;7730;49.610;11.136;2022-12-20T08:50:44;18.70;;;11.13;;
15254;SDS011;7730;49.610;11.136;2022-12-20T08:53:11;20.37;;;12.67;;
15254;SDS011;7730;49.610;11.136;2022-12-20T08:55:38;19.63;;;12.80;;
15254;SDS011;7730;49.610;11.136;2022-12-20T08:58:05;20.87;;;13.07;;
15254;SDS011;7730;49.610;11.136;2022-12-20T09:00:34;20.40;;;13.43;;
15254;SDS011;7730;49.610;11.136;2022-12-20T09:03:02;18.23;;;11.53;;
15254;SDS011;7730;49.610;11.136;2022-12-20T09:05:29;19.27;;;12.27;;
15254;SDS011;7730;49.610;11.136;2022-12-20T09:07:56;19.53;;;12.13;;
15254;SDS011;7730;49.610;11.136;2022-12-20T09:10:23;20.20;;;12.23;;
15254;SDS011;7730;49.610;11.136;2022-12-20T09:12:51;19.07;;;12.27;;
15254;SDS011;7730;49.610;11.136;2022-12-20T09:15:18;19.50;;;11.67;;
15254;SDS011;7730;49.610;11.136;2022-12-20T09:17:46;18.80;;;11.73;;
15254;SDS011;7730;49.610;11.136;2022-12-20T09:20:13;19.03;;;11.40;;
15254;SDS011;7730;49.610;11.136;2022-12-20T09:22:40;16.90;;;9.93;;
15254;SDS011;7730;49.610;11.136;2022-12-20T09:25:07;19.93;;;12.23;;
15254;SDS011;7730;49.610;11.136;2022-12-20T09:27:34;20.00;;;12.30;;
15254;SDS011;7730;49.610;11.136;2022-12-20T09:30:02;19.80;;;12.23;;
15254;SDS011;7730;49.610;11.136;2022-12-20T09:32:29;19.97;;;12.30;;
15254;SDS011;7730;49.610;11.136;2022-12-20T09:34:57;17.87;;;10.50;;
15254;SDS011;7730;49.610;11.136;2022-12-20T09:37:24;15.90;;;8.37;;
15254;SDS011;7730;49.610;11.136;2022-12-20T09:39:51;19.83;;;12.93;;
15254;SDS011;7730;49.610;11.136;2022-12-20T09:42:18;19.03;;;11.77;;
15254;SDS011;7730;49.610;11.136;2022-12-20T09:44:48;16.73;;;9.75;;
15254;SDS011;7730;49.610;11.136;2022-12-20T09:47:15;17.83;;;10.18;;
15254;SDS011;7730;49.610;11.136;2022-12-20T09:49:44;19.33;;;11.43;;
15254;SDS011;7730;49.610;11.136;2022-12-20T09:52:22;18.47;;;10.97;;
15254;SDS011;7730;49.610;11.136;2022-12-20T09:54:53;19.30;;;11.27;;
15254;SDS011;7730;49.610;11.136;2022-12-20T09:57:24;16.93;;;9.67;;
15254;SDS011;7730;49.610;11.136;2022-12-20T09:59:55;17.73;;;10.67;;
15254;SDS011;7730;49.610;11.136;2022-12-20T10:02:22;16.77;;;10.20;;
15254;SDS011;7730;49.610;11.136;2022-12-20T10:04:50;17.00;;;9.63;;
15254;SDS011;7730;49.610;11.136;2022-12-20T10:07:25;17.50;;;10.20;;
15254;SDS011;7730;49.610;11.136;2022-12-20T10:10:02;18.73;;;10.90;;
15254;SDS011;7730;49.610;11.136;2022-12-20T10:12:37;17.10;;;9.30;;
15254;SDS011;7730;49.610;11.136;2022-12-20T10:15:17;17.47;;;9.70;;
15254;SDS011;7730;49.610;11.136;2022-12-20T10:18:01;18.40;;;11.10;;
15254;SDS011;7730;49.610;11.136;2022-12-20T10:20:33;16.60;;;9.57;;
15254;SDS011;7730;49.610;11.136;2022-12-20T10:23:06;19.70;;;11.20;;
15254;SDS011;7730;49.610;11.136;2022-12-20T10:25:34;19.93;;;11.17;;
15254;SDS011;7730;49.610;11.136;2022-12-20T10:28:02;17.80;;;9.93;;
15254;SDS011;7730;49.610;11.136;2022-12-20T10:30:31;18.63;;;11.73;;
15254;SDS011;7730;49.610;11.136;2022-12-20T10:32:59;18.80;;;11.40;;
15254;SDS011;7730;49.610;11.136;2022-12-20T10:35:27;17.83;;;9.90;;
15254;SDS011;7730;49.610;11.136;2022-12-20T10:37:56;18.43;;;10.47;;
15254;SDS011;7730;49.610;11.136;2022-12-20T10:40:26;14.70;;;7.57;;
15254;SDS011;7730;49.610;11.136;2022-12-20T10:42:53;17.70;;;9.77;;
15254;SDS011;7730;49.610;11.136;2022-12-20T10:45:25;18.63;;;11.40;;
15254;SDS011;7730;49.610;11.136;2022-12-20T10:47:57;18.93;;;11.40;;
15254;SDS011;7730;49.610;11.136;2022-12-20T10:50:24;18.13;;;10.63;;
15254;SDS011;7730;49.610;11.136;2022-12-20T10:53:01;17.37;;;8.97;;
15254;SDS011;7730;49.610;11.136;2022-12-20T10:55:34;17.30;;;10.27;;
15254;SDS011;7730;49.610;11.136;2022-12-20T10:58:02;17.53;;;10.70;;
15254;SDS011;7730;49.610;11.136;2022-12-20T11:00:30;19.47;;;10.70;;
15254;SDS011;7730;49.610;11.136;2022-12-20T11:03:10;17.63;;;9.93;;
15254;SDS011;7730;49.610;11.136;2022-12-20T11:05:37;18.50;;;11.00;;
15254;SDS011;7730;49.610;11.136;2022-12-20T11:08:08;18.83;;;11.40;;
15254;SDS011;7730;49.610;11.136;2022-12-20T11:10:39;18.63;;;10.17;;
15254;SDS011;7730;49.610;11.136;2022-12-20T11:13:10;17.00;;;9.97;;
15254;SDS011;7730;49.610;11.136;2022-12-20T11:15:46;18.83;;;11.50;;
15254;SDS011;7730;49.610;11.136;2022-12-20T11:18:16;19.00;;;10.97;;
15254;SDS011;7730;49.610;11.136;2022-12-20T11:20:46;18.88;;;10.77;;
15254;SDS011;7730;49.610;11.136;2022-12-20T11:23:18;18.73;;;10.37;;
15254;SDS011;7730;49.610;11.136;2022-12-20T11:25:56;18.47;;;10.43;;
15254;SDS011;7730;49.610;11.136;2022-12-20T11:28:29;17.57;;;10.40;;
15254;SDS011;7730;49.610;11.136;2022-12-20T11:31:03;17.47;;;10.23;;
15254;SDS011;7730;49.610;11.136;2022-12-20T11:33:48;18.20;;;10.37;;
15254;SDS011;7730;49.610;11.136;2022-12-20T11:36:17;17.70;;;10.27;;
15254;SDS011;7730;49.610;11.136;2022-12-20T11:38:47;20.93;;;10.67;;
15254;SDS011;7730;49.610;11.136;2022-12-20T11:41:17;16.80;;;10.10;;
15254;SDS011;7730;49.610;11.136;2022-12-20T11:43:50;17.23;;;10.00;;
15254;SDS011;7730;49.610;11.136;2022-12-20T11:46:27;18.53;;;10.50;;
15254;SDS011;7730;49.610;11.136;2022-12-20T11:49:02;17.07;;;10.00;;
15254;SDS011;7730;49.610;11.136;2022-12-20T11:51:34;17.87;;;9.93;;
15254;SDS011;7730;49.610;11.136;2022-12-20T11:54:07;17.63;;;10.20;;
15254;SDS011;7730;49.610;11.136;2022-12-20T11:56:38;17.70;;;9.73;;
15254;SDS011;7730;49.610;11.136;2022-12-20T11:59:06;17.40;;;8.03;;
15254;SDS011;7730;49.610;11.136;2022-12-20T12:01:39;16.00;;;8.57;;
15254;SDS011;7730;49.610;11.136;2022-12-20T12:04:09;17.10;;;10.00;;
15254;SDS011;7730;49.610;11.136;2022-12-20T12:06:38;14.93;;;7.57;;
15254;SDS011;7730;49.610;11.136;2022-12-20T12:09:16;15.03;;;6.87;;
15254;SDS011;7730;49.610;11.136;2022-12-20T12:11:48;15.90;;;8.27;;
15254;SDS011;7730;49.610;11.136;2022-12-20T12:14:19;15.07;;;7.53;;
15254;SDS011;7730;49.610;11.136;2022-12-20T12:16:49;18.33;;;10.33;;
15254;SDS011;7730;49.610;11.136;2022-12-20T12:19:17;16.57;;;9.50;;
15254;SDS011;7730;49.610;11.136;2022-12-20T12:21:46;17.80;;;10.40;;
15254;SDS011;7730;49.610;11.136;2022-12-20T12:24:22;16.73;;;9.03;;
15254;SDS011;7730;49.610;11.136;2022-12-20T12:26:52;16.63;;;9.70;;
15254;SDS011;7730;49.610;11.136;2022-12-20T12:29:19;16.67;;;8.37;;
15254;SDS011;7730;49.610;11.136;2022-12-20T12:31:47;16.53;;;8.30;;
15254;SDS011;7730;49.610;11.136;2022-12-20T12:34:28;16.33;;;8.77;;
15254;SDS011;7730;49.610;11.136;2022-12-20T12:37:07;15.30;;;8.27;;
15254;SDS011;7730;49.610;11.136;2022-12-20T12:39:47;17.03;;;8.67;;
15254;SDS011;7730;49.610;11.136;2022-12-20T12:42:32;15.40;;;7.53;;
15254;SDS011;7730;49.610;11.136;2022-12-20T12:45:03;14.97;;;7.40;;
15254;SDS011;7730;49.610;11.136;2022-12-20T12:47:33;16.20;;;9.00;;
15254;SDS011;7730;49.610;11.136;2022-12-20T12:50:02;16.37;;;8.33;;
15254;SDS011;7730;49.610;11.136;2022-12-20T12:52:40;15.53;;;7.87;;
15254;SDS011;7730;49.610;11.136;2022-12-20T12:57:55;17.10;;;8.67;;
15254;SDS011;7730;49.610;11.136;2022-12-20T13:03:12;16.60;;;9.10;;
15254;SDS011;7730;49.610;11.136;2022-12-20T13:05:40;16.40;;;8.50;;
15254;SDS011;7730;49.610;11.136;2022-12-20T13:08:13;17.13;;;9.53;;
15254;SDS011;7730;49.610;11.136;2022-12-20T13:10:55;17.25;;;9.30;;
15254;SDS011;7730;49.610;11.136;2022-12-20T13:13:24;16.17;;;8.83;;
15254;SDS011;7730;49.610;11.136;2022-12-20T13:16:03;15.97;;;8.17;;
15254;SDS011;7730;49.610;11.136;2022-12-20T13:18:30;17.40;;;9.60;;
15254;SDS011;7730;49.610;11.136;2022-12-20T13:21:16;18.10;;;10.75;;
15254;SDS011;7730;49.610;11.136;2022-12-20T13:23:43;17.87;;;9.30;;
15254;SDS011;7730;49.610;11.136;2022-12-20T13:28:58;16.60;;;9.47;;
15254;SDS011;7730;49.610;11.136;2022-12-20T13:31:43;17.03;;;9.20;;
15254;SDS011;7730;49.610;11.136;2022-12-20T13:34:33;15.77;;;8.10;;
15254;SDS011;7730;49.610;11.136;2022-12-20T13:37:01;16.10;;;9.20;;
15254;SDS011;7730;49.610;11.136;2022-12-20T13:39:29;16.77;;;9.33;;
15254;SDS011;7730;49.610;11.136;2022-12-20T13:42:12;17.03;;;9.23;;
15254;SDS011;7730;49.610;11.136;2022-12-20T13:44:43;17.20;;;9.20;;
15254;SDS011;7730;49.610;11.136;2022-12-20T13:47:28;17.40;;;9.97;;
15254;SDS011;7730;49.610;11.136;2022-12-20T13:49:58;16.83;;;9.37;;
15254;SDS011;7730;49.610;11.136;2022-12-20T13:52:27;17.17;;;9.50;;
15254;SDS011;7730;49.610;11.136;2022-12-20T13:54:56;17.43;;;9.50;;
15254;SDS011;7730;49.610;11.136;2022-12-20T13:57:28;17.90;;;9.97;;
15254;SDS011;7730;49.610;11.136;2022-12-20T13:59:58;16.87;;;9.60;;
15254;SDS011;7730;49.610;11.136;2022-12-20T14:02:26;17.17;;;10.27;;
15254;SDS011;7730;49.610;11.136;2022-12-20T14:04:56;17.90;;;9.90;;
15254;SDS011;7730;49.610;11.136;2022-12-20T14:07:24;17.47;;;9.87;;
15254;SDS011;7730;49.610;11.136;2022-12-20T14:09:56;17.07;;;9.90;;
15254;SDS011;7730;49.610;11.136;2022-12-20T14:12:23;18.70;;;9.97;;
15254;SDS011;7730;49.610;11.136;2022-12-20T14:14:51;17.13;;;9.50;;
15254;SDS011;7730;49.610;11.136;2022-12-20T14:17:22;18.77;;;10.13;;
15254;SDS011;7730;49.610;11.136;2022-12-20T14:20:03;18.90;;;10.27;;
15254;SDS011;7730;49.610;11.136;2022-12-20T14:22:31;16.77;;;9.53;;
15254;SDS011;7730;49.610;11.136;2022-12-20T14:24:58;18.20;;;9.90;;
15254;SDS011;7730;49.610;11.136;2022-12-20T14:27:26;17.77;;;10.03;;
15254;SDS011;7730;49.610;11.136;2022-12-20T14:29:54;17.77;;;9.47;;
15254;SDS011;7730;49.610;11.136;2022-12-20T14:32:23;17.83;;;9.93;;
15254;SDS011;7730;49.610;11.136;2022-12-20T14:34:50;17.20;;;9.53;;
15254;SDS011;7730;49.610;11.136;2022-12-20T14:37:27;17.13;;;9.40;;
15254;SDS011;7730;49.610;11.136;2022-12-20T14:39:57;17.17;;;9.70;;
15254;SDS011;7730;49.610;11.136;2022-12-20T14:42:26;15.13;;;7.63;;
15254;SDS011;7730;49.610;11.136;2022-12-20T14:45:00;16.97;;;8.80;;